Time;durP1;ratioP1;P1;durP2;ratioP2;P2;SDS_P1;SDS_P2;PMS_P1;PMS_P2;Temp;Humidity;BMP_temperature;BMP_pressure;BME280_temperature;BME280_humidity;BME280_pressure;Samples;Min_cycle;Max_cycle;Signal;HPM_P1;HPM_P2
2022/07/31 00:00:39;;;;;;;17.85;4.82;;;;;;;19.86;80.96;101691.41;5001761;28;20863;-67
2022/07/31 00:03:05;;;;;;;6.32;4.18;;;;;;;19.84;80.70;101682.56;5003200;28;20095;-66
2022/07/31 00:05:31;;;;;;;6.50;4.18;;;;;;;19.72;82.70;101683.66;5001756;28;20056;-66
2022/07/31 00:07:57;;;;;;;7.68;4.35;;;;;;;19.79;83.05;101686.69;5001878;28;20041;-67
2022/07/31 00:10:22;;;;;;;5.30;4.00;;;;;;;19.69;85.43;101681.25;5002137;28;20073;-67
2022/07/31 00:12:48;;;;;;;6.18;4.07;;;;;;;19.70;83.74;101690.22;5000229;28;20045;-66
2022/07/31 00:15:14;;;;;;;10.45;4.45;;;;;;;19.63;84.66;101682.63;5000408;28;20525;-67
2022/07/31 00:17:41;;;;;;;7.95;4.28;;;;;;;19.53;84.92;101684.41;5002419;28;20048;-67
2022/07/31 00:20:08;;;;;;;6.28;4.20;;;;;;;19.55;84.48;101679.72;5002818;28;20141;-66
2022/07/31 00:22:34;;;;;;;9.70;4.13;;;;;;;19.53;83.04;101678.13;4984078;28;20050;-67
2022/07/31 00:25:00;;;;;;;7.65;3.45;;;;;;;19.58;83.86;101675.91;5002962;28;20128;-67
2022/07/31 00:27:25;;;;;;;5.85;3.92;;;;;;;19.49;83.70;101676.69;4985124;28;20601;-67
2022/07/31 00:29:51;;;;;;;5.45;3.85;;;;;;;19.52;82.82;101671.00;5003050;28;20518;-66
2022/07/31 00:32:16;;;;;;;6.85;3.65;;;;;;;19.37;82.63;101668.63;5002045;28;20611;-67
2022/07/31 00:34:42;;;;;;;5.85;3.95;;;;;;;19.33;83.75;101669.91;4985486;28;20038;-67
2022/07/31 00:37:08;;;;;;;7.15;3.78;;;;;;;19.53;83.09;101664.59;5001486;28;20046;-66
2022/07/31 00:39:34;;;;;;;7.90;3.17;;;;;;;19.40;84.16;101660.25;4984747;28;20038;-66
2022/07/31 00:41:59;;;;;;;11.15;4.07;;;;;;;19.39;82.08;101665.81;4984284;28;20677;-67
2022/07/31 00:44:25;;;;;;;7.25;3.72;;;;;;;19.39;82.30;101655.00;5001114;28;20050;-66
2022/07/31 00:46:51;;;;;;;4.68;3.67;;;;;;;19.29;82.31;101651.38;5001609;28;20941;-67
2022/07/31 00:49:17;;;;;;;4.90;3.78;;;;;;;19.21;83.05;101649.34;5003364;28;20053;-66
2022/07/31 00:51:43;;;;;;;5.15;3.90;;;;;;;19.29;82.31;101646.84;5001365;28;20055;-66
2022/07/31 00:54:09;;;;;;;11.13;3.65;;;;;;;19.29;83.11;101646.84;5000781;28;20044;-66
2022/07/31 00:56:35;;;;;;;8.27;3.70;;;;;;;19.23;83.04;101647.38;5001061;28;20148;-66
2022/07/31 00:59:01;;;;;;;8.48;3.97;;;;;;;19.11;84.39;101638.47;5000416;28;20062;-68
2022/07/31 01:01:27;;;;;;;4.38;2.97;;;;;;;19.09;83.77;101640.47;5002004;28;20088;-66
2022/07/31 01:03:52;;;;;;;8.00;3.22;;;;;;;19.15;82.54;101641.75;5000989;28;20034;-67
2022/07/31 01:06:19;;;;;;;6.80;3.72;;;;;;;19.06;83.20;101640.72;5002357;28;20037;-66
2022/07/31 01:08:44;;;;;;;5.47;3.17;;;;;;;19.04;84.16;101647.25;4984177;28;20741;-67
2022/07/31 01:11:26;;;;;;;6.65;4.07;;;;;;;19.05;84.47;101640.84;5000446;28;20100;-67
2022/07/31 01:14:00;;;;;;;;;;;;;;;18.96;84.52;101644.34;5003173;28;20353;-67
2022/07/31 01:16:29;;;;;;;10.88;4.32;;;;;;;18.86;85.10;101638.88;4984037;28;19917;-66
2022/07/31 01:18:56;;;;;;;5.53;3.83;;;;;;;18.81;86.26;101636.56;5000761;28;20112;-67
2022/07/31 01:21:27;;;;;;;6.93;3.60;;;;;;;18.87;85.21;101635.16;4990792;28;20042;-66
2022/07/31 01:24:08;;;;;;;7.00;3.77;;;;;;;18.79;85.59;101629.59;4980093;28;20108;-67
2022/07/31 01:27:02;;;;;;;7.03;3.78;;;;;;;18.82;85.36;101622.03;4969606;28;20074;-67
2022/07/31 01:29:36;;;;;;;8.25;3.60;;;;;;;18.76;86.40;101630.69;4981634;28;20043;-67
2022/07/31 01:32:07;;;;;;;6.65;4.80;;;;;;;18.66;87.04;101631.56;4980203;28;20133;-66
2022/07/31 01:34:41;;;;;;;4.40;3.80;;;;;;;18.69;86.90;101624.09;4980367;28;20039;-67
2022/07/31 01:37:13;;;;;;;6.15;4.18;;;;;;;18.74;86.08;101624.56;4982464;28;20210;-66
2022/07/31 01:39:44;;;;;;;4.90;4.20;;;;;;;18.59;87.55;101617.75;4980855;28;20074;-67
2022/07/31 01:42:13;;;;;;;6.50;4.07;;;;;;;18.71;85.63;101615.84;4982264;28;20140;-67
2022/07/31 01:44:43;;;;;;;8.20;5.10;;;;;;;18.80;84.47;101624.03;4965045;28;20050;-66
2022/07/31 01:47:14;;;;;;;8.95;3.65;;;;;;;18.78;84.68;101619.78;4965561;28;20564;-66
2022/07/31 01:49:41;;;;;;;10.52;4.72;;;;;;;18.74;85.90;101608.34;4989188;28;20037;-66
2022/07/31 01:52:08;;;;;;;6.18;4.22;;;;;;;18.68;86.06;101616.09;5012544;28;20729;-66
2022/07/31 01:54:35;;;;;;;10.80;4.40;;;;;;;18.66;87.11;101605.41;4984979;28;20049;-66
2022/07/31 01:57:02;;;;;;;15.50;4.22;;;;;;;18.66;86.45;101602.69;4999109;28;20042;-65
2022/07/31 01:59:38;;;;;;;11.38;4.45;;;;;;;18.67;86.10;101604.41;5001833;28;20042;-66
2022/07/31 02:02:18;;;;;;;6.97;3.70;;;;;;;18.65;85.88;101601.00;5003245;28;20473;-65
2022/07/31 02:04:45;;;;;;;10.07;4.25;;;;;;;18.61;86.29;101603.09;5003846;28;20034;-65
2022/07/31 02:07:13;;;;;;;5.50;3.90;;;;;;;18.62;86.90;101594.03;4991909;28;20030;-65
2022/07/31 02:09:42;;;;;;;5.75;3.72;;;;;;;18.66;85.58;101591.91;4997808;28;20137;-64
2022/07/31 02:12:10;;;;;;;5.93;3.70;;;;;;;18.74;85.32;101596.69;5003125;28;20041;-65
2022/07/31 02:14:39;;;;;;;5.20;3.85;;;;;;;18.78;85.17;101587.34;5002189;28;20877;-65
2022/07/31 02:17:08;;;;;;;11.20;4.60;;;;;;;18.86;85.90;101593.78;5002055;28;20041;-65
2022/07/31 02:19:52;;;;;;;6.50;3.90;;;;;;;18.79;88.48;101592.59;5002414;28;20060;-65
2022/07/31 02:22:19;;;;;;;10.80;4.15;;;;;;;18.69;87.71;101590.81;5003080;28;20048;-65
2022/07/31 02:24:44;;;;;;;9.25;3.65;;;;;;;18.63;89.56;101598.44;5002477;28;20581;-65
2022/07/31 02:27:12;;;;;;;5.43;3.63;;;;;;;18.85;85.97;101605.56;5004326;28;20048;-65
2022/07/31 02:29:40;;;;;;;7.35;3.65;;;;;;;18.85;85.78;101602.88;4986262;28;20095;-65
2022/07/31 02:32:06;;;;;;;7.60;3.35;;;;;;;18.99;86.47;101592.72;5002366;28;20044;-65
2022/07/31 02:34:34;;;;;;;7.20;3.58;;;;;;;19.01;87.29;101599.69;5004096;28;20049;-65
2022/07/31 02:37:01;;;;;;;6.95;3.85;;;;;;;18.97;87.52;101600.09;4999251;28;20038;-65
2022/07/31 02:39:29;;;;;;;7.43;4.18;;;;;;;18.86;90.38;101599.19;5002647;28;20034;-65
2022/07/31 02:41:59;;;;;;;7.18;4.93;;;;;;;18.74;91.60;101608.34;5002165;28;20048;-66
2022/07/31 02:44:26;;;;;;;11.85;4.53;;;;;;;18.78;91.59;101601.72;5002100;28;20482;-66
2022/07/31 02:46:52;;;;;;;6.20;5.10;;;;;;;18.75;90.65;101599.25;5003346;28;20501;-65
2022/07/31 02:49:18;;;;;;;5.43;4.40;;;;;;;18.62;90.96;101591.31;5002128;28;20558;-65
2022/07/31 02:51:44;;;;;;;5.82;4.13;;;;;;;18.28;94.45;101587.06;5001703;28;20065;-66
2022/07/31 02:54:10;;;;;;;9.68;4.95;;;;;;;17.96;96.97;101592.44;5001721;28;20059;-65
2022/07/31 02:56:36;;;;;;;7.85;4.63;;;;;;;18.00;99.11;101583.94;5004284;28;20450;-65
2022/07/31 02:59:03;;;;;;;13.60;4.75;;;;;;;17.98;97.79;101574.28;5001940;28;20033;-65
2022/07/31 03:01:40;;;;;;;7.22;5.32;;;;;;;17.92;98.12;101577.47;5000827;28;20111;-65
2022/07/31 03:04:06;;;;;;;9.15;5.45;;;;;;;18.10;95.97;101568.72;5000881;28;20073;-66
2022/07/31 03:06:31;;;;;;;6.68;4.53;;;;;;;18.43;92.80;101568.72;4999764;28;20026;-65
2022/07/31 03:08:58;;;;;;;6.40;4.13;;;;;;;18.25;94.80;101577.38;5000219;28;20501;-66
2022/07/31 03:11:24;;;;;;;8.82;5.05;;;;;;;18.29;96.42;101576.13;5000624;28;20112;-66
2022/07/31 03:13:52;;;;;;;8.80;5.05;;;;;;;18.47;95.81;101573.69;5000350;28;20745;-66
2022/07/31 03:16:19;;;;;;;6.65;5.22;;;;;;;18.37;97.96;101573.66;5000428;28;20550;-65
2022/07/31 03:18:46;;;;;;;7.28;5.43;;;;;;;18.34;99.82;101578.44;4999154;28;20085;-66
2022/07/31 03:21:12;;;;;;;7.00;5.68;;;;;;;18.35;99.57;101572.91;5001075;28;20064;-66
2022/07/31 03:23:38;;;;;;;7.85;6.32;;;;;;;18.41;98.48;101573.38;4999605;28;20042;-66
2022/07/31 03:26:09;;;;;;;11.70;6.47;;;;;;;18.34;99.34;101564.94;4982205;28;20054;-67
2022/07/31 03:28:34;;;;;;;10.40;6.63;;;;;;;18.47;98.42;101570.13;4999564;28;20034;-66
2022/07/31 03:31:01;;;;;;;9.95;7.05;;;;;;;18.41;97.36;101566.13;4998592;28;20041;-66
2022/07/31 03:33:29;;;;;;;12.85;7.05;;;;;;;18.44;98.47;101556.91;5001981;28;20042;-66
2022/07/31 03:35:54;;;;;;;11.57;7.25;;;;;;;18.49;97.25;101560.94;5002005;28;20044;-66
2022/07/31 03:38:20;;;;;;;11.73;7.55;;;;;;;18.56;95.83;101559.41;5001424;28;20190;-66
2022/07/31 03:40:48;;;;;;;11.48;7.90;;;;;;;18.50;97.09;101550.97;5000974;28;20060;-66
2022/07/31 03:43:16;;;;;;;8.48;7.55;;;;;;;18.43;100.00;101547.97;5000538;28;20053;-66
2022/07/31 03:45:46;;;;;;;13.20;8.07;;;;;;;18.52;97.26;101547.16;4977296;28;20660;-66
2022/07/31 03:48:12;;;;;;;11.63;7.60;;;;;;;18.44;96.87;101544.28;4994511;28;20045;-70
2022/07/31 03:50:39;;;;;;;9.00;7.22;;;;;;;18.29;98.43;101545.56;5000200;28;20045;-66
2022/07/31 03:53:05;;;;;;;8.55;6.97;;;;;;;18.31;98.08;101539.03;5000045;28;20792;-66
2022/07/31 03:55:34;;;;;;;7.93;6.47;;;;;;;18.32;98.56;101540.78;5000164;28;20577;-66
2022/07/31 03:58:02;;;;;;;9.15;7.32;;;;;;;18.41;99.77;101549.91;4994562;28;20058;-66
2022/07/31 04:00:29;;;;;;;10.93;7.93;;;;;;;18.21;100.00;101550.75;4990791;28;20166;-66
2022/07/31 04:02:57;;;;;;;9.95;7.03;;;;;;;18.29;100.00;101543.72;5003102;28;20045;-66
2022/07/31 04:05:40;;;;;;;13.75;6.97;;;;;;;18.39;100.00;101549.19;5001499;28;20065;-66
2022/07/31 04:08:07;;;;;;;12.70;6.63;;;;;;;18.36;100.00;101546.75;5001565;28;20042;-66
2022/07/31 04:10:37;;;;;;;8.25;6.72;;;;;;;18.48;99.77;101544.88;5001919;28;20042;-66
2022/07/31 04:13:05;;;;;;;8.30;6.80;;;;;;;18.55;98.43;101541.50;4985234;28;20080;-67
2022/07/31 04:15:31;;;;;;;9.43;6.38;;;;;;;18.48;98.53;101539.47;5001269;28;20045;-66
2022/07/31 04:17:57;;;;;;;7.68;6.35;;;;;;;18.57;98.72;101541.34;5001295;28;20502;-66
2022/07/31 04:20:29;;;;;;;11.00;6.47;;;;;;;18.55;97.96;101543.34;5000301;28;20056;-66
2022/07/31 04:22:55;;;;;;;11.77;6.45;;;;;;;18.63;99.34;101543.56;4984704;28;20033;-66
2022/07/31 04:25:43;;;;;;;9.80;6.07;;;;;;;18.52;99.55;101549.84;5001614;28;20077;-66
2022/07/31 04:28:25;;;;;;;14.40;6.83;;;;;;;18.39;99.01;101543.81;4999927;28;20109;-69
2022/07/31 04:30:51;;;;;;;13.18;7.10;;;;;;;18.41;98.80;101541.81;4999843;28;20476;-66
2022/07/31 04:33:17;;;;;;;11.68;7.25;;;;;;;18.48;98.55;101544.88;4983787;28;20033;-66
2022/07/31 04:35:43;;;;;;;10.25;7.45;;;;;;;18.52;97.68;101549.00;5000212;28;20033;-67
2022/07/31 04:38:10;;;;;;;9.63;7.65;;;;;;;18.60;98.00;101558.16;4994337;28;20034;-66
2022/07/31 04:40:36;;;;;;;12.93;7.53;;;;;;;18.61;96.99;101551.75;5000249;28;20037;-66
2022/07/31 04:43:02;;;;;;;9.60;7.72;;;;;;;18.71;96.12;101546.47;4999724;28;20038;-66
2022/07/31 04:45:28;;;;;;;14.73;7.78;;;;;;;18.71;97.57;101549.16;4999381;28;20033;-66
2022/07/31 04:47:53;;;;;;;12.73;7.57;;;;;;;18.77;97.60;101553.19;4997065;28;20039;-66
2022/07/31 04:50:19;;;;;;;14.07;8.65;;;;;;;18.77;97.63;101558.59;4988277;28;20044;-66
2022/07/31 04:52:54;;;;;;;16.63;8.38;;;;;;;18.83;97.35;101561.63;4989029;28;20383;-66
2022/07/31 04:55:20;;;;;;;13.27;8.43;;;;;;;18.93;95.02;101558.97;4988562;28;20053;-66
2022/07/31 04:57:46;;;;;;;11.90;8.32;;;;;;;19.01;95.16;101558.28;4995430;28;20030;-66
2022/07/31 05:00:12;;;;;;;17.92;8.88;;;;;;;19.09;95.81;101561.19;4992950;28;20034;-67
2022/07/31 05:02:39;;;;;;;15.00;9.45;;;;;;;19.15;95.03;101558.78;4992157;28;20048;-66
2022/07/31 05:05:06;;;;;;;12.55;9.35;;;;;;;19.19;95.20;101556.69;4987751;28;20661;-66
2022/07/31 05:07:37;;;;;;;14.00;8.55;;;;;;;19.30;94.86;101556.59;4990353;28;20034;-66
2022/07/31 05:13:11;;;;;;;17.23;8.50;;;;;;;19.52;94.08;101555.50;4989019;28;20038;-66
2022/07/31 05:15:36;;;;;;;11.20;8.27;;;;;;;19.51;94.78;101552.94;4989530;28;20042;-65
2022/07/31 05:18:02;;;;;;;14.05;8.77;;;;;;;19.57;94.05;101552.41;4994360;28;20039;-66
2022/07/31 05:20:50;;;;;;;15.75;9.15;;;;;;;19.52;94.82;101560.91;4958791;28;20086;-66
2022/07/31 05:23:25;;;;;;;13.07;8.82;;;;;;;19.51;95.09;101550.25;4959146;28;20046;-66
2022/07/31 05:26:19;;;;;;;16.83;9.50;;;;;;;19.48;95.97;101547.81;4937864;28;20046;-66
2022/07/31 05:28:45;;;;;;;14.93;9.93;;;;;;;19.53;95.42;101542.84;4958731;28;20488;-66
2022/07/31 05:31:11;;;;;;;16.30;9.07;;;;;;;19.50;96.32;101545.84;4942208;28;20166;-66
2022/07/31 05:33:37;;;;;;;15.88;10.45;;;;;;;19.58;96.40;101540.59;4960046;28;20043;-66
2022/07/31 05:36:03;;;;;;;13.90;9.50;;;;;;;19.50;97.25;101541.28;4959333;28;20181;-66
2022/07/31 05:38:29;;;;;;;16.48;10.15;;;;;;;19.62;95.86;101536.63;4944254;28;20046;-66
2022/07/31 05:41:16;;;;;;;20.50;11.10;;;;;;;19.61;96.24;101546.59;4961038;28;20915;-68
2022/07/31 05:44:00;;;;;;;14.38;9.75;;;;;;;19.87;95.30;101530.69;4960515;28;20137;-69
2022/07/31 05:46:30;;;;;;;16.50;10.18;;;;;;;20.12;93.90;101541.97;4960121;28;20066;-69
2022/07/31 05:48:55;;;;;;;16.83;9.48;;;;;;;20.36;94.65;101555.09;4941724;28;20081;-69
2022/07/31 05:51:21;;;;;;;15.82;10.18;;;;;;;20.58;92.79;101551.25;4966081;28;20289;-69
2022/07/31 05:53:47;;;;;;;17.58;9.55;;;;;;;20.65;91.63;101549.69;4942882;28;20110;-69
2022/07/31 05:56:31;;;;;;;15.93;10.13;;;;;;;20.87;91.12;101537.63;4944882;28;20049;-68
2022/07/31 05:58:58;;;;;;;17.38;9.38;;;;;;;20.91;90.98;101548.03;4997176;28;20057;-69
2022/07/31 06:01:24;;;;;;;21.70;9.90;;;;;;;21.10;89.18;101554.41;4983040;28;20064;-69
2022/07/31 06:03:49;;;;;;;16.70;9.55;;;;;;;20.79;90.94;101548.38;4983860;28;20037;-69
2022/07/31 06:06:50;;;;;;;17.05;9.48;;;;;;;20.79;91.74;101560.06;4987907;28;20120;-69
2022/07/31 06:09:15;;;;;;;15.98;9.25;;;;;;;20.63;91.89;101559.78;4999665;28;20042;-69
2022/07/31 06:11:44;;;;;;;19.08;8.60;;;;;;;20.85;90.84;101564.03;4999291;28;20046;-71
2022/07/31 06:14:11;;;;;;;16.38;9.93;;;;;;;20.67;90.55;101562.06;4997508;28;20516;-69
2022/07/31 06:16:54;;;;;;;18.80;10.68;;;;;;;20.73;91.02;101563.34;4988851;28;20093;-69
2022/07/31 06:19:21;;;;;;;23.60;10.95;;;;;;;20.44;92.69;101566.94;4997361;28;20049;-69
2022/07/31 06:21:46;;;;;;;22.95;11.93;;;;;;;20.59;92.49;101566.53;4998408;28;20033;-69
2022/07/31 06:24:12;;;;;;;14.60;10.95;;;;;;;20.48;91.10;101569.38;4998147;28;20042;-69
2022/07/31 06:26:41;;;;;;;20.90;12.60;;;;;;;20.39;92.37;101571.94;4993008;28;20033;-69
2022/07/31 06:29:07;;;;;;;22.45;13.52;;;;;;;20.13;92.32;101562.63;4976964;28;20034;-68
2022/07/31 06:31:34;;;;;;;23.23;14.45;;;;;;;20.10;91.48;101562.94;4994329;28;20041;-69
2022/07/31 06:34:00;;;;;;;19.88;14.05;;;;;;;20.06;92.72;101562.34;4998415;28;20042;-68
2022/07/31 06:36:34;;;;;;;21.77;14.32;;;;;;;20.08;92.65;101567.63;4978219;28;20509;-69
2022/07/31 06:39:01;;;;;;;25.63;14.80;;;;;;;20.11;92.26;101572.75;4994027;28;20033;-69
2022/07/31 06:44:26;;;;;;;22.52;15.52;;;;;;;20.09;91.82;101564.78;5014146;28;20983;-65
2022/07/31 06:47:12;;;;;;;24.10;16.23;;;;;;;20.30;90.99;101567.34;5014846;28;20105;-65
2022/07/31 06:49:56;;;;;;;29.90;16.13;;;;;;;20.37;91.44;101579.31;5017306;28;20061;-65
2022/07/31 06:52:25;;;;;;;30.48;15.70;;;;;;;20.30;90.01;101569.22;4999834;28;20025;-65
2022/07/31 06:54:51;;;;;;;23.40;14.70;;;;;;;20.53;89.18;101561.66;5005043;28;20044;-65
2022/07/31 06:57:17;;;;;;;24.95;15.38;;;;;;;20.63;89.28;101548.94;5018941;28;20046;-65
2022/07/31 06:59:45;;;;;;;24.17;15.65;;;;;;;20.71;87.74;101546.38;5017599;28;20049;-65
2022/07/31 07:02:11;;;;;;;26.67;16.33;;;;;;;21.01;87.46;101550.72;5017621;28;20137;-66
2022/07/31 07:04:36;;;;;;;28.02;15.57;;;;;;;21.11;86.22;101550.69;5011942;28;20030;-65
2022/07/31 07:07:03;;;;;;;31.83;16.77;;;;;;;21.42;83.94;101543.16;5018248;28;20029;-67
2022/07/31 07:09:31;;;;;;;20.08;15.27;;;;;;;21.57;84.21;101540.78;4997740;28;20034;-65
2022/07/31 07:11:56;;;;;;;24.90;16.50;;;;;;;21.38;82.94;101541.75;5019287;28;20041;-66
2022/07/31 07:14:23;;;;;;;24.45;15.32;;;;;;;21.48;84.82;101542.53;5017690;28;20030;-66
2022/07/31 07:16:48;;;;;;;22.85;15.45;;;;;;;21.29;83.67;101548.06;5004140;28;20048;-66
2022/07/31 07:19:14;;;;;;;25.52;16.25;;;;;;;21.10;85.82;101549.00;5020188;28;20034;-66
2022/07/31 07:21:41;;;;;;;23.77;15.80;;;;;;;20.98;85.96;101545.59;5012209;28;20298;-66
2022/07/31 07:24:10;;;;;;;25.88;15.98;;;;;;;21.05;86.91;101541.28;5001565;28;20105;-65
2022/07/31 07:26:42;;;;;;;27.15;16.55;;;;;;;20.95;87.79;101543.19;5004739;28;20334;-65
2022/07/31 07:29:11;;;;;;;22.27;15.40;;;;;;;21.01;88.21;101545.28;5021103;28;20037;-65
2022/07/31 07:31:36;;;;;;;24.13;16.52;;;;;;;20.74;90.11;101542.53;5017303;28;20033;-65
2022/07/31 07:34:04;;;;;;;27.10;15.68;;;;;;;20.69;89.56;101537.56;5020799;28;20034;-65
2022/07/31 07:36:31;;;;;;;27.15;16.48;;;;;;;20.58;90.62;101538.56;5014538;28;20064;-65
2022/07/31 07:39:02;;;;;;;27.98;16.10;;;;;;;20.71;89.35;101542.81;5019792;28;20056;-65
2022/07/31 07:41:28;;;;;;;22.02;15.20;;;;;;;20.95;91.13;101541.31;5019068;28;20121;-66
2022/07/31 07:43:54;;;;;;;22.38;14.65;;;;;;;21.24;89.38;101536.81;5003993;28;20072;-65
2022/07/31 07:46:22;;;;;;;19.15;14.05;;;;;;;21.21;88.78;101533.38;5020150;28;20565;-66
2022/07/31 07:48:52;;;;;;;23.08;15.05;;;;;;;21.25;88.92;101531.22;5020953;28;20625;-65
2022/07/31 07:51:31;;;;;;;21.75;14.15;;;;;;;21.24;88.50;101532.22;5021164;28;20069;-65
2022/07/31 07:54:02;;;;;;;21.87;13.83;;;;;;;21.12;88.68;101542.41;5020547;28;20104;-65
2022/07/31 07:56:51;;;;;;;21.75;13.25;;;;;;;21.07;89.30;101535.72;5020418;28;20207;-65
2022/07/31 07:59:25;;;;;;;20.08;14.30;;;;;;;20.90;91.27;101543.63;5019986;28;20045;-65
2022/07/31 08:02:11;;;;;;;20.35;13.88;;;;;;;20.92;90.38;101547.03;5019974;28;20064;-65
2022/07/31 08:04:37;;;;;;;18.92;13.27;;;;;;;21.02;90.57;101547.00;5023251;28;20044;-66
2022/07/31 08:07:03;;;;;;;22.40;13.40;;;;;;;21.23;88.70;101544.06;5023502;28;20072;-65
2022/07/31 08:09:34;;;;;;;19.63;13.10;;;;;;;21.21;89.81;101537.94;5012555;28;20012;-65
2022/07/31 08:12:23;;;;;;;22.55;13.02;;;;;;;21.38;89.14;101539.03;5023216;28;20096;-66
2022/07/31 08:15:11;;;;;;;22.13;12.18;;;;;;;21.28;89.59;101541.75;5011810;28;20084;-65
2022/07/31 08:17:55;;;;;;;24.02;12.05;;;;;;;21.41;88.85;101533.31;5019494;28;20052;-66
2022/07/31 08:20:21;;;;;;;26.63;13.02;;;;;;;21.26;88.90;101532.91;5015939;28;20750;-65
2022/07/31 08:22:47;;;;;;;22.05;13.18;;;;;;;21.38;89.77;101531.75;5008652;28;20041;-65
2022/07/31 08:25:13;;;;;;;20.58;12.90;;;;;;;21.39;88.96;101525.34;5020546;28;20033;-65
2022/07/31 08:27:39;;;;;;;22.05;12.70;;;;;;;21.46;91.11;101531.00;5020407;28;20037;-65
2022/07/31 08:30:05;;;;;;;19.20;13.13;;;;;;;21.56;87.55;101522.81;5026602;28;20045;-65
2022/07/31 08:32:30;;;;;;;23.15;12.45;;;;;;;21.52;88.38;101533.09;5024661;28;20046;-66
2022/07/31 08:35:14;;;;;;;18.15;11.40;;;;;;;21.98;88.96;101528.50;5026050;28;20058;-65
2022/07/31 08:37:41;;;;;;;19.40;11.50;;;;;;;21.91;87.11;101525.56;5019412;28;20041;-66
2022/07/31 08:40:06;;;;;;;19.13;12.10;;;;;;;22.12;86.19;101532.59;5021438;28;20061;-66
2022/07/31 08:42:32;;;;;;;15.70;11.48;;;;;;;22.39;83.59;101527.06;5014222;28;20042;-66
2022/07/31 08:44:58;;;;;;;21.25;11.95;;;;;;;22.02;85.75;101524.47;5013404;28;20041;-66
2022/07/31 08:47:31;;;;;;;18.83;11.38;;;;;;;21.98;86.33;101529.34;5017377;28;20030;-66
2022/07/31 08:50:02;;;;;;;19.92;12.02;;;;;;;21.92;86.33;101529.97;5018445;28;20042;-66
2022/07/31 08:52:31;;;;;;;21.65;11.35;;;;;;;22.12;85.02;101519.84;5014330;28;20050;-65
2022/07/31 08:55:23;;;;;;;18.33;12.13;;;;;;;22.34;84.26;101517.66;5016731;28;20038;-65
2022/07/31 08:57:50;;;;;;;19.33;11.38;;;;;;;22.55;82.70;101514.59;5019673;28;20375;-66
2022/07/31 09:00:18;;;;;;;14.52;10.30;;;;;;;22.69;82.84;101524.88;4999593;28;20045;-66
2022/07/31 09:02:46;;;;;;;17.67;11.27;;;;;;;22.84;82.73;101522.41;5018609;28;20049;-65
2022/07/31 09:05:33;;;;;;;21.05;10.77;;;;;;;23.00;83.19;101522.56;5017687;28;20048;-65
2022/07/31 09:07:58;;;;;;;23.40;10.65;;;;;;;22.89;81.79;101518.28;5019849;28;20042;-65
2022/07/31 09:10:26;;;;;;;15.80;10.18;;;;;;;23.09;83.65;101515.28;5020240;28;20045;-66
2022/07/31 09:12:53;;;;;;;21.63;12.60;;;;;;;22.98;82.12;101520.00;5020213;28;20030;-66
2022/07/31 09:15:25;;;;;;;17.90;11.15;;;;;;;23.70;80.56;101506.88;5019869;28;20140;-65
2022/07/31 09:17:54;;;;;;;19.17;12.23;;;;;;;23.68;79.06;101498.00;5019098;28;20041;-66
2022/07/31 09:20:29;;;;;;;17.50;11.32;;;;;;;23.87;78.61;101491.41;5019222;28;20038;-66
2022/07/31 09:23:09;;;;;;;16.67;12.50;;;;;;;23.88;77.71;101493.13;5017522;28;20038;-67
2022/07/31 09:25:39;;;;;;;20.55;12.70;;;;;;;24.02;78.72;101506.06;5010307;28;20037;-65
2022/07/31 09:28:06;;;;;;;23.23;12.73;;;;;;;24.49;76.54;101512.75;4994073;28;20038;-66
2022/07/31 09:30:33;;;;;;;17.42;12.05;;;;;;;24.08;75.59;101509.16;5012762;28;20058;-65
2022/07/31 09:33:15;;;;;;;19.45;11.90;;;;;;;24.10;76.69;101516.16;5014605;28;20064;-65
2022/07/31 09:36:01;;;;;;;18.15;13.20;;;;;;;23.81;76.72;101505.72;4999642;28;20041;-65
2022/07/31 09:38:38;;;;;;;17.90;11.40;;;;;;;23.81;77.33;101507.59;5025521;28;20030;-65
2022/07/31 09:41:22;;;;;;;21.73;11.60;;;;;;;23.88;76.40;101500.44;5022052;28;20068;-65
2022/07/31 09:44:03;;;;;;;18.25;11.80;;;;;;;24.04;75.60;101511.34;5020636;28;20053;-66
2022/07/31 09:46:41;;;;;;;15.38;10.38;;;;;;;24.04;76.60;101497.72;5019331;28;20066;-65
2022/07/31 09:49:08;;;;;;;18.42;11.35;;;;;;;24.02;76.76;101503.34;4999866;28;20049;-65
2022/07/31 09:51:43;;;;;;;15.70;11.15;;;;;;;23.68;75.96;101498.00;4999757;28;20018;-66
2022/07/31 09:54:24;;;;;;;16.92;10.48;;;;;;;23.64;78.97;101504.81;5000006;28;20270;-66
2022/07/31 09:57:11;;;;;;;15.10;10.15;;;;;;;24.02;77.47;101511.53;5015187;28;20059;-65
2022/07/31 09:59:38;;;;;;;16.25;11.30;;;;;;;23.39;84.31;101508.44;4995985;28;20791;-66
2022/07/31 10:02:07;;;;;;;16.10;12.45;;;;;;;23.57;83.84;101508.34;4986345;28;20049;-66
2022/07/31 10:04:35;;;;;;;18.75;12.13;;;;;;;23.93;83.35;101504.34;4996819;28;20722;-66
2022/07/31 10:07:01;;;;;;;23.00;11.73;;;;;;;23.61;83.53;101512.44;4998038;28;20176;-66
2022/07/31 10:09:29;;;;;;;17.67;11.23;;;;;;;23.71;83.50;101511.31;4999506;28;20123;-66
2022/07/31 10:12:18;;;;;;;19.10;11.70;;;;;;;23.51;84.64;101508.00;4995769;28;20049;-66
2022/07/31 10:14:47;;;;;;;14.38;10.68;;;;;;;23.48;85.40;101518.34;5000190;28;20045;-66
2022/07/31 10:17:16;;;;;;;15.27;10.43;;;;;;;23.19;86.81;101521.44;4998000;28;20030;-66
2022/07/31 10:20:12;;;;;;;16.08;10.15;;;;;;;23.16;88.82;101519.06;4987669;28;20034;-65
2022/07/31 10:23:09;;;;;;;16.70;10.98;;;;;;;23.07;87.86;101520.03;4999267;28;20781;-66
2022/07/31 10:25:43;;;;;;;14.88;10.88;;;;;;;23.64;89.77;101517.56;4990659;28;20034;-66
2022/07/31 10:28:09;;;;;;;16.73;10.77;;;;;;;23.57;87.39;101514.63;4992979;28;20030;-66
2022/07/31 10:30:35;;;;;;;13.35;9.70;;;;;;;23.51;89.84;101513.44;4997902;28;20573;-66
2022/07/31 10:33:04;;;;;;;15.07;10.30;;;;;;;23.24;90.31;101505.50;4998646;28;20033;-66
2022/07/31 10:36:02;;;;;;;16.73;10.70;;;;;;;23.76;89.93;101499.91;4993320;28;20042;-66
2022/07/31 10:39:14;;;;;;;18.92;11.10;;;;;;;23.82;89.29;101491.06;4995160;28;20128;-66
2022/07/31 10:42:20;;;;;;;18.83;10.00;;;;;;;24.08;88.47;101498.25;4994113;28;20042;-66
2022/07/31 10:44:52;;;;;;;15.30;10.48;;;;;;;23.84;88.61;101485.44;4999455;28;20141;-66
2022/07/31 10:47:25;;;;;;;17.20;10.23;;;;;;;24.03;88.71;101485.13;4997703;28;20030;-66
2022/07/31 10:50:21;;;;;;;17.75;11.70;;;;;;;23.93;87.29;101493.47;4997910;28;20150;-66
2022/07/31 10:53:09;;;;;;;19.23;11.80;;;;;;;24.08;86.76;101490.91;5000037;28;20584;-66
2022/07/31 10:56:02;;;;;;;18.55;11.00;;;;;;;24.53;88.21;101490.41;5000262;28;20077;-66
2022/07/31 10:58:52;;;;;;;17.60;11.15;;;;;;;24.02;90.28;101494.31;4999757;28;20049;-67
2022/07/31 11:01:53;;;;;;;15.18;11.32;;;;;;;24.31;87.55;101487.53;4981230;28;20046;-66
2022/07/31 11:04:35;;;;;;;15.23;11.27;;;;;;;24.48;86.10;101481.06;4998671;28;20038;-66
2022/07/31 11:07:26;;;;;;;;;;;;;;;24.51;88.10;101478.00;4989427;28;20030;-67
2022/07/31 11:10:19;;;;;;;15.00;11.75;;;;;;;24.40;86.21;101479.19;4999060;28;20416;-66
2022/07/31 11:13:11;;;;;;;16.80;10.98;;;;;;;24.23;85.17;101472.00;4996234;28;20044;-67
2022/07/31 11:15:47;;;;;;;14.82;11.00;;;;;;;24.76;85.56;101476.91;4984904;28;20042;-66
2022/07/31 11:18:31;;;;;;;16.35;11.25;;;;;;;24.44;83.78;101477.81;4996087;28;20049;-66
2022/07/31 11:21:08;;;;;;;16.83;11.38;;;;;;;24.65;84.21;101470.94;4992865;28;20129;-67
2022/07/31 11:23:35;;;;;;;17.05;11.13;;;;;;;24.57;81.44;101468.25;5004299;28;20042;-66
2022/07/31 11:26:03;;;;;;;13.25;10.80;;;;;;;25.12;80.78;101459.25;4999878;28;20050;-66
2022/07/31 11:28:29;;;;;;;17.13;10.68;;;;;;;25.00;82.60;101462.34;4996836;28;20467;-66
2022/07/31 11:31:08;;;;;;;15.85;10.38;;;;;;;25.31;76.25;101456.94;5006617;28;20100;-66
2022/07/31 11:33:45;;;;;;;14.32;9.85;;;;;;;25.75;76.85;101461.81;5005261;28;20038;-66
2022/07/31 11:36:19;;;;;;;16.38;10.13;;;;;;;25.13;79.47;101469.13;5011109;28;20212;-68
2022/07/31 11:38:50;;;;;;;14.43;9.93;;;;;;;24.79;82.50;101470.25;4992066;28;20186;-68
2022/07/31 11:41:17;;;;;;;18.33;11.98;;;;;;;24.15;87.45;101461.97;5013198;28;20206;-68